Mammoth Cave National Park, KY

5:33 AM CDT on September 26, 2016 (GMT -0500)
Bowling Green | | Change Station

Elev 0 ft 36.99 °N, 86.47 °W | Updated 8 minutes ago

Clear
Clear
68.2 °F
Feels Like 68.2 °F
N
0.6
Wind Variable Wind from WSW
Gusts 2.5 mph

Today
High -- | Low -- °F
--% Chance of Precip.
Yesterday
High -- | Low -- °F
Precip. -- in
Pressure 29.96 in
Visibility 5.0 miles
Clouds Clear
Dew Point 65 °F
Humidity 89%
Rainfall Not available.
Snow Depth Not available.
6:37 AM 6:35 PM
Waning Crescent, 20% visible
METAR KBWG 260953Z AUTO 00000KT 5SM BR CLR 19/18 A2998 RMK AO2 SLP146 T01890183
Pressure 29.96 in
Visibility 5.0 miles
Clouds Clear
Dew Point 65 °F
Humidity 89%
Rainfall Not available.
Snow Depth Not available.
6:37 AM 6:35 PM
Waning Crescent, 20% visible
METAR KBWG 260953Z AUTO 00000KT 5SM BR CLR 19/18 A2998 RMK AO2 SLP146 T01890183

10-Day Weather Forecast

Almanac

Astronomy

Sep. 26, 2016 Rise Set
Actual Time
Civil Twilight
Nautical Twilight
Astronomical Twilight
Moon
Length of Visible Light
Length of Day
Tomorrow will be .
, % of the Moon is Illuminated

Today's Extremes

State Highs State Lows

Community

WunderPhotos

Upload Photos

1,941,856 photos uploaded!

WunderBlog® & News

Nearby

Air Quality

  Air Quality AQ Index Pollutant
Not available.

Snow Depth

Station Depth Elevation

Earthquake Activity

City Distance Mag. Time & Date
Minimum magnitude displayed is 2.5.

Coastal Water Temperatures

Place Temperature

Stations

Nearby Weather Stations

Station Location Temp. Windchill Dew Point Humidity Wind Precip. Elev Updated Type
                   

Watches & Warnings

There are currently no watches in effect.